createdAt,value
2022-08-11T00:03:00.030Z,0
2022-08-11T00:07:54.408Z,0
2022-08-11T00:12:54.381Z,0
2022-08-11T00:17:56.902Z,0
2022-08-11T00:22:54.693Z,0
2022-08-11T00:27:54.424Z,0
2022-08-11T00:32:54.429Z,0
2022-08-11T00:37:54.406Z,0
2022-08-11T00:42:58.417Z,0
2022-08-11T00:47:55.518Z,0
2022-08-11T00:52:54.413Z,0
2022-08-11T00:57:54.512Z,0
2022-08-11T01:02:54.479Z,0
2022-08-11T01:07:58.878Z,0
2022-08-11T01:12:54.438Z,0
2022-08-11T01:17:54.478Z,0
2022-08-11T01:22:54.438Z,0
2022-08-11T01:27:54.525Z,0
2022-08-11T01:37:54.473Z,0
2022-08-11T01:42:55.493Z,0
2022-08-11T01:47:55.552Z,0
2022-08-11T01:52:54.401Z,0
2022-08-11T01:57:54.466Z,0
2022-08-11T02:02:56.972Z,0
2022-08-11T02:07:57.461Z,0
2022-08-11T02:12:54.477Z,0
2022-08-11T02:17:55.468Z,0
2022-08-11T02:22:54.454Z,0
2022-08-11T02:27:54.475Z,0
2022-08-11T02:32:54.434Z,0
2022-08-11T02:37:54.478Z,0
2022-08-11T02:42:54.477Z,0
2022-08-11T02:47:54.478Z,0
2022-08-11T02:52:59.995Z,0
2022-08-11T02:57:57.533Z,0
2022-08-11T03:02:54.443Z,0
2022-08-11T03:12:54.413Z,0
2022-08-11T03:18:06.702Z,0
2022-08-11T03:23:19.611Z,0
2022-08-11T03:28:06.810Z,0
2022-08-11T03:33:06.716Z,0
2022-08-11T03:38:06.744Z,0
2022-08-11T03:43:06.755Z,0
2022-08-11T03:48:06.755Z,0
2022-08-11T03:53:06.715Z,0
2022-08-11T03:58:06.703Z,0
2022-08-11T04:03:06.767Z,0
2022-08-11T04:08:06.694Z,0
2022-08-11T04:13:06.764Z,0
2022-08-11T04:18:06.685Z,0
2022-08-11T04:23:06.738Z,0
2022-08-11T04:28:06.877Z,265
2022-08-11T04:33:09.759Z,266
2022-08-11T04:38:06.779Z,267
2022-08-11T04:43:06.764Z,270
2022-08-11T04:48:06.759Z,269
2022-08-11T04:53:06.731Z,271
2022-08-11T04:58:06.771Z,271
2022-08-11T05:03:07.790Z,271
2022-08-11T05:08:06.770Z,274
2022-08-11T05:13:06.789Z,274
2022-08-11T05:18:06.737Z,274
2022-08-11T05:23:06.797Z,276
2022-08-11T05:28:06.855Z,275
2022-08-11T05:33:06.893Z,277
2022-08-11T05:38:06.832Z,279
2022-08-11T05:43:06.787Z,279
2022-08-11T05:48:06.758Z,279
2022-08-11T05:53:12.069Z,279
2022-08-11T05:58:10.107Z,278
2022-08-11T06:03:06.785Z,281
2022-08-11T06:08:06.808Z,281
2022-08-11T06:13:06.784Z,282
2022-08-11T06:18:06.823Z,283
2022-08-11T06:23:06.772Z,283
2022-08-11T06:28:06.822Z,282
2022-08-11T06:33:06.790Z,284
2022-08-11T06:38:06.788Z,284
2022-08-11T06:43:06.804Z,287
2022-08-11T06:48:06.862Z,286
2022-08-11T06:53:06.830Z,287
2022-08-11T06:58:06.897Z,287
2022-08-11T07:03:06.810Z,289
2022-08-11T07:08:33.391Z,289
2022-08-11T07:13:06.781Z,289
2022-08-11T07:18:06.814Z,291
2022-08-11T07:23:06.785Z,291
2022-08-11T07:28:06.801Z,292
2022-08-11T07:33:06.824Z,293
2022-08-11T07:38:09.803Z,295
2022-08-11T07:43:06.915Z,297
2022-08-11T07:48:06.800Z,299
2022-08-11T07:53:06.839Z,301
2022-08-11T07:58:15.657Z,304
2022-08-11T08:03:06.780Z,306
2022-08-11T08:08:06.837Z,309
2022-08-11T08:13:06.805Z,312
2022-08-11T08:18:25.833Z,314
2022-08-11T08:23:06.885Z,321
2022-08-11T08:28:06.850Z,321
2022-08-11T08:33:06.826Z,323
2022-08-11T08:38:06.817Z,328
2022-08-11T08:43:06.871Z,333
2022-08-11T08:48:06.991Z,342
2022-08-11T08:53:10.926Z,363
2022-08-11T08:58:06.828Z,387
2022-08-11T09:03:36.374Z,1082
2022-08-11T09:08:06.804Z,2084
2022-08-11T09:13:06.844Z,1677
2022-08-11T09:18:06.829Z,1534
2022-08-11T09:24:02.338Z,1856
2022-08-11T09:28:06.817Z,1702
2022-08-11T09:33:06.866Z,1774
2022-08-11T09:38:06.958Z,2010
2022-08-11T09:43:06.885Z,1834
2022-08-11T09:48:06.862Z,1753
2022-08-11T09:53:35.401Z,1923
2022-08-11T09:58:06.883Z,1916
2022-08-11T10:03:06.871Z,1899
2022-08-11T10:08:06.853Z,1919
2022-08-11T10:13:43.662Z,1774
2022-08-11T10:18:06.913Z,1506
2022-08-11T10:23:06.884Z,1518
2022-08-11T10:28:17.388Z,1724
2022-08-11T10:33:11.415Z,1788
2022-08-11T10:38:10.982Z,1862
2022-08-11T10:43:08.629Z,1865
2022-08-11T10:48:06.893Z,1715
2022-08-11T10:53:06.888Z,1630
2022-08-11T10:58:06.898Z,1859
2022-08-11T11:03:22.507Z,1555
2022-08-11T11:08:07.188Z,1748
2022-08-11T11:13:06.895Z,1819
2022-08-11T11:18:06.851Z,1251
2022-08-11T11:23:06.959Z,373
2022-08-11T11:28:06.854Z,353
2022-08-11T11:33:06.917Z,338
2022-08-11T11:38:13.721Z,327
2022-08-11T11:43:06.885Z,321
2022-08-11T11:48:06.932Z,318
2022-08-11T11:53:06.892Z,314
2022-08-11T11:58:06.951Z,308
2022-08-11T12:03:07.009Z,308
2022-08-11T12:08:10.447Z,306
2022-08-11T12:13:06.912Z,304
2022-08-11T12:18:06.905Z,305
2022-08-11T12:23:06.912Z,303
2022-08-11T12:28:06.939Z,302
2022-08-11T12:33:06.908Z,304
2022-08-11T12:38:10.926Z,301
2022-08-11T12:43:20.643Z,302
2022-08-11T12:48:37.873Z,299
2022-08-11T12:53:06.900Z,302
2022-08-11T12:58:06.970Z,301
2022-08-11T13:03:06.910Z,305
2022-08-11T13:08:06.907Z,301
2022-08-11T13:13:53.076Z,302
2022-08-11T13:18:07.009Z,297
2022-08-11T13:23:06.911Z,297
2022-08-11T13:28:06.959Z,301
2022-08-11T13:33:06.901Z,300
2022-08-11T13:38:18.106Z,299
2022-08-11T13:43:06.934Z,301
2022-08-11T13:48:07.002Z,306
2022-08-11T13:53:06.902Z,299
2022-08-11T13:58:18.428Z,302
2022-08-11T14:03:09.850Z,303
2022-08-11T14:08:07.963Z,306
2022-08-11T14:13:08.032Z,301
2022-08-11T14:18:07.012Z,305
2022-08-11T14:23:06.957Z,292
2022-08-11T14:28:32.828Z,301
2022-08-11T14:33:16.687Z,301
2022-08-11T14:38:06.956Z,299
2022-08-11T14:43:07.056Z,293
2022-08-11T14:48:07.001Z,307
2022-08-11T14:53:07.044Z,299
2022-08-11T14:58:12.218Z,294
2022-08-11T15:03:07.017Z,293
2022-08-11T15:08:07.012Z,292
2022-08-11T15:13:06.997Z,289
2022-08-11T15:18:06.956Z,292
2022-08-11T15:23:08.615Z,285
2022-08-11T15:28:07.061Z,291
2022-08-11T15:33:10.044Z,295
2022-08-11T15:38:06.994Z,287
2022-08-11T15:43:12.760Z,285
2022-08-11T15:48:07.021Z,302
2022-08-11T15:53:07.847Z,294
2022-08-11T15:58:06.967Z,292
2022-08-11T16:03:09.646Z,291
2022-08-11T16:08:11.342Z,288
2022-08-11T16:13:06.998Z,286
2022-08-11T16:18:07.064Z,284
2022-08-11T16:23:06.989Z,287
2022-08-11T16:28:07.021Z,281
2022-08-11T16:33:22.900Z,281
2022-08-11T16:38:07.047Z,280
2022-08-11T16:43:11.484Z,279
2022-08-11T16:48:33.373Z,280
2022-08-11T16:53:07.028Z,278
2022-08-11T16:58:07.043Z,277
2022-08-11T17:03:09.207Z,275
2022-08-11T17:08:07.027Z,275
2022-08-11T17:13:10.051Z,275
2022-08-11T17:18:07.079Z,272
2022-08-11T17:28:07.021Z,272
2022-08-11T17:33:07.220Z,269
2022-08-11T17:38:07.095Z,269
2022-08-11T17:43:07.086Z,269
2022-08-11T17:48:07.038Z,268
2022-08-11T17:53:07.078Z,267
2022-08-11T17:58:07.008Z,266
2022-08-11T18:03:07.032Z,266
2022-08-11T18:08:07.066Z,265
2022-08-11T18:13:07.114Z,0
2022-08-11T18:18:07.030Z,0
2022-08-11T18:23:07.032Z,0
2022-08-11T18:28:07.016Z,0
2022-08-11T18:33:40.238Z,0
2022-08-11T18:38:07.047Z,0
2022-08-11T18:43:07.202Z,0
2022-08-11T18:48:07.114Z,0
2022-08-11T18:53:07.070Z,0
2022-08-11T18:58:07.055Z,0
2022-08-11T19:03:07.096Z,0
2022-08-11T19:08:07.036Z,0
2022-08-11T19:13:07.083Z,0
2022-08-11T19:18:07.176Z,0
2022-08-11T19:23:07.093Z,0
2022-08-11T19:28:07.076Z,0
2022-08-11T19:33:07.079Z,0
2022-08-11T19:38:07.221Z,0
2022-08-11T19:43:11.149Z,0
2022-08-11T19:53:17.078Z,0
2022-08-11T19:58:08.179Z,0
2022-08-11T20:03:10.131Z,0
2022-08-11T20:08:07.139Z,0
2022-08-11T20:13:08.091Z,0
2022-08-11T20:18:07.075Z,0
2022-08-11T20:23:07.161Z,0
2022-08-11T20:28:07.073Z,0
2022-08-11T20:33:07.134Z,0
2022-08-11T20:38:13.562Z,0
2022-08-11T20:43:15.879Z,0
2022-08-11T20:48:07.106Z,0
2022-08-11T20:53:07.101Z,0
2022-08-11T20:58:15.234Z,0
2022-08-11T21:03:07.120Z,0
2022-08-11T21:08:07.173Z,0
2022-08-11T21:13:18.140Z,0
2022-08-11T21:18:08.131Z,0
2022-08-11T21:23:20.044Z,0
2022-08-11T21:28:07.160Z,0
2022-08-11T21:33:07.148Z,0
2022-08-11T21:38:10.121Z,0
2022-08-11T21:43:08.167Z,0
2022-08-11T21:48:07.103Z,0
2022-08-11T21:53:08.102Z,0
2022-08-11T21:58:07.137Z,0
2022-08-11T22:03:09.020Z,0
2022-08-11T22:08:07.134Z,0
2022-08-11T22:13:07.113Z,0
2022-08-11T22:18:08.528Z,0
2022-08-11T22:23:09.743Z,0
2022-08-11T22:28:07.151Z,0
2022-08-11T22:33:07.096Z,0
2022-08-11T22:38:07.136Z,0
2022-08-11T22:43:07.137Z,0
2022-08-11T22:48:07.124Z,0
2022-08-11T22:53:07.620Z,0
2022-08-11T22:58:08.318Z,0
2022-08-11T23:03:10.245Z,0
2022-08-11T23:08:07.166Z,0
2022-08-11T23:13:07.221Z,0
2022-08-11T23:18:08.657Z,0
2022-08-11T23:23:07.959Z,0
2022-08-11T23:28:07.150Z,0
2022-08-11T23:33:09.729Z,0
2022-08-11T23:38:08.152Z,0
2022-08-11T23:43:07.490Z,0
2022-08-11T23:48:09.913Z,0
2022-08-11T23:53:07.173Z,0
2022-08-11T23:58:07.188Z,0
